Time;durP1;ratioP1;P1;durP2;ratioP2;P2;SDS_P1;SDS_P2;PMS_P1;PMS_P2;Temp;Humidity;BMP_temperature;BMP_pressure;BME280_temperature;BME280_humidity;BME280_pressure;Samples;Min_cycle;Max_cycle;Signal;HPM_P1;HPM_P2
2021/08/15 00:01:30;;;;;;;;;;;18.90;72.80;;;;;;493991;240;1221;-46
2021/08/15 00:03:32;;;;;;;;;;;18.90;72.80;;;;;;494068;240;1255;-46
2021/08/15 00:05:33;;;;;;;;;;;18.90;72.80;;;;;;494565;240;1247;-46
2021/08/15 00:07:34;;;;;;;;;;;18.90;72.90;;;;;;494035;240;1311;-46
2021/08/15 00:09:36;;;;;;;;;;;18.90;72.80;;;;;;494574;240;1043;-46
2021/08/15 00:11:37;;;;;;;;;;;18.90;72.90;;;;;;493970;240;1365;-46
2021/08/15 00:13:38;;;;;;;;;;;18.90;72.90;;;;;;494122;240;1577;-46
2021/08/15 00:15:40;;;;;;;;;;;18.90;72.80;;;;;;494555;240;1091;-46
2021/08/15 00:17:41;;;;;;;;;;;18.90;72.90;;;;;;493998;240;1259;-46
2021/08/15 00:19:42;;;;;;;;;;;18.90;72.90;;;;;;494365;240;2179;-46
2021/08/15 00:21:44;;;;;;;;;;;18.90;73.00;;;;;;494470;240;1176;-46
2021/08/15 00:23:45;;;;;;;;;;;18.90;72.90;;;;;;494559;240;1239;-46
2021/08/15 00:25:46;;;;;;;;;;;18.90;72.80;;;;;;494514;240;1044;-46
2021/08/15 00:27:48;;;;;;;;;;;18.90;72.80;;;;;;494466;240;1052;-46
2021/08/15 00:29:49;;;;;;;;;;;18.90;72.80;;;;;;494387;240;1089;-46
2021/08/15 00:31:50;;;;;;;;;;;18.90;72.80;;;;;;494164;240;1306;-46
2021/08/15 00:33:52;;;;;;;;;;;18.90;72.90;;;;;;494471;240;1099;-46
2021/08/15 00:35:53;;;;;;;;;;;18.90;72.80;;;;;;494489;240;1196;-46
2021/08/15 00:37:54;;;;;;;;;;;18.90;72.90;;;;;;494132;240;1226;-46
2021/08/15 00:39:56;;;;;;;;;;;18.90;72.80;;;;;;494137;240;2132;-46
2021/08/15 00:41:57;;;;;;;;;;;18.90;72.90;;;;;;494096;240;1399;-46
2021/08/15 00:43:58;;;;;;;;;;;18.90;72.80;;;;;;494206;240;984;-46
2021/08/15 00:46:00;;;;;;;;;;;18.90;72.80;;;;;;494429;240;1139;-46
2021/08/15 00:48:01;;;;;;;;;;;18.90;72.80;;;;;;494011;240;1244;-46
2021/08/15 00:50:02;;;;;;;;;;;18.90;72.80;;;;;;494580;240;1052;-46
2021/08/15 00:52:05;;;;;;;;;;;18.90;72.90;;;;;;494191;240;1384;-46
2021/08/15 00:54:05;;;;;;;;;;;18.90;72.90;;;;;;494058;240;1829;-46
2021/08/15 00:56:06;;;;;;;;;;;18.90;72.90;;;;;;494423;239;1234;-46
2021/08/15 00:58:08;;;;;;;;;;;18.90;72.80;;;;;;494116;240;1077;-46
2021/08/15 01:00:09;;;;;;;;;;;18.90;72.80;;;;;;494116;240;2195;-46
2021/08/15 01:02:10;;;;;;;;;;;18.90;72.90;;;;;;494234;240;1649;-46
2021/08/15 01:04:11;;;;;;;;;;;18.90;72.90;;;;;;494093;240;1087;-46
2021/08/15 01:06:13;;;;;;;;;;;18.90;72.90;;;;;;494520;240;1068;-46
2021/08/15 01:08:14;;;;;;;;;;;18.90;72.80;;;;;;494379;240;1449;-46
2021/08/15 01:10:16;;;;;;;;;;;18.90;72.90;;;;;;494148;240;1100;-46
2021/08/15 01:12:17;;;;;;;;;;;18.90;72.90;;;;;;494038;240;1379;-46
2021/08/15 01:14:18;;;;;;;;;;;18.90;72.80;;;;;;494367;240;1047;-46
2021/08/15 01:16:20;;;;;;;;;;;18.90;72.90;;;;;;494001;240;1214;-46
2021/08/15 01:18:21;;;;;;;;;;;18.90;72.90;;;;;;494043;240;1157;-46
2021/08/15 01:20:22;;;;;;;;;;;18.90;72.80;;;;;;494094;240;2792;-46
2021/08/15 01:22:23;;;;;;;;;;;18.90;72.90;;;;;;494194;240;1312;-46
2021/08/15 01:24:25;;;;;;;;;;;18.90;72.90;;;;;;494067;240;1053;-46
2021/08/15 01:26:26;;;;;;;;;;;18.90;72.90;;;;;;494483;240;1123;-46
2021/08/15 01:28:27;;;;;;;;;;;18.90;73.00;;;;;;494514;240;1029;-46
2021/08/15 01:30:29;;;;;;;;;;;18.90;72.90;;;;;;494448;240;1334;-46
2021/08/15 01:32:30;;;;;;;;;;;18.90;72.90;;;;;;494242;240;1263;-46
2021/08/15 01:34:31;;;;;;;;;;;18.90;73.00;;;;;;494070;240;1052;-46
2021/08/15 01:36:33;;;;;;;;;;;18.90;72.80;;;;;;494057;240;1205;-47
2021/08/15 01:38:34;;;;;;;;;;;18.90;72.90;;;;;;494023;240;2143;-46
2021/08/15 01:40:35;;;;;;;;;;;18.90;72.90;;;;;;494547;240;1082;-46
2021/08/15 01:42:37;;;;;;;;;;;18.90;72.90;;;;;;494300;240;1114;-46
2021/08/15 01:44:38;;;;;;;;;;;18.90;72.90;;;;;;494559;240;1041;-46
2021/08/15 01:46:40;;;;;;;;;;;18.90;73.00;;;;;;494349;240;1194;-46
2021/08/15 01:48:41;;;;;;;;;;;18.90;73.00;;;;;;494143;240;1139;-46
2021/08/15 01:50:42;;;;;;;;;;;18.90;72.90;;;;;;494080;240;1097;-46
2021/08/15 01:52:43;;;;;;;;;;;18.90;72.90;;;;;;494162;240;1208;-46
2021/08/15 01:54:45;;;;;;;;;;;18.90;72.80;;;;;;494101;240;1026;-46
2021/08/15 01:56:46;;;;;;;;;;;18.90;72.90;;;;;;494051;240;1201;-46
2021/08/15 01:58:47;;;;;;;;;;;18.90;72.90;;;;;;494345;240;2199;-47
2021/08/15 02:00:49;;;;;;;;;;;18.90;72.90;;;;;;494169;240;1050;-47
2021/08/15 02:02:50;;;;;;;;;;;18.90;72.70;;;;;;494288;240;1144;-46
2021/08/15 02:04:51;;;;;;;;;;;18.90;72.80;;;;;;494270;240;1056;-46
2021/08/15 02:06:53;;;;;;;;;;;18.90;72.90;;;;;;494003;240;1179;-46
2021/08/15 02:08:54;;;;;;;;;;;18.90;72.90;;;;;;494230;240;1072;-46
2021/08/15 02:10:56;;;;;;;;;;;18.90;72.90;;;;;;494063;240;1461;-46
2021/08/15 02:12:57;;;;;;;;;;;18.90;72.90;;;;;;494155;240;1056;-46
2021/08/15 02:14:58;;;;;;;;;;;18.90;72.90;;;;;;494114;240;1036;-46
2021/08/15 02:17:00;;;;;;;;;;;18.90;72.90;;;;;;494238;240;1400;-46
2021/08/15 02:19:01;;;;;;;;;;;18.90;73.00;;;;;;494062;240;2190;-46
2021/08/15 02:21:02;;;;;;;;;;;18.90;72.90;;;;;;494107;240;1016;-46
2021/08/15 02:23:04;;;;;;;;;;;18.90;72.90;;;;;;494020;241;1287;-46
2021/08/15 02:25:05;;;;;;;;;;;18.90;72.90;;;;;;494332;240;956;-46
2021/08/15 02:27:06;;;;;;;;;;;18.90;72.90;;;;;;494055;240;1088;-46
2021/08/15 02:29:08;;;;;;;;;;;18.90;72.90;;;;;;494492;240;1173;-46
2021/08/15 02:31:09;;;;;;;;;;;18.90;72.90;;;;;;494079;240;1060;-46
2021/08/15 02:33:10;;;;;;;;;;;18.90;72.90;;;;;;494373;240;1104;-46
2021/08/15 02:35:12;;;;;;;;;;;18.90;72.90;;;;;;494076;240;1163;-46
2021/08/15 02:37:13;;;;;;;;;;;18.90;72.80;;;;;;494529;240;1239;-46
2021/08/15 02:39:14;;;;;;;;;;;18.90;72.80;;;;;;494323;240;2139;-46
2021/08/15 02:41:16;;;;;;;;;;;18.90;72.80;;;;;;494078;240;1151;-46
2021/08/15 02:43:17;;;;;;;;;;;18.90;72.90;;;;;;494091;240;1213;-46
2021/08/15 02:45:18;;;;;;;;;;;18.90;72.90;;;;;;494160;240;941;-46
2021/08/15 02:47:20;;;;;;;;;;;18.90;72.90;;;;;;493994;240;1315;-46
2021/08/15 02:49:21;;;;;;;;;;;18.90;72.90;;;;;;494194;240;1129;-46
2021/08/15 02:51:22;;;;;;;;;;;18.90;72.90;;;;;;494199;240;1140;-46
2021/08/15 02:53:24;;;;;;;;;;;18.90;72.80;;;;;;494504;240;1056;-45
2021/08/15 02:55:25;;;;;;;;;;;18.90;72.90;;;;;;494213;240;2026;-46
2021/08/15 02:57:26;;;;;;;;;;;18.90;72.90;;;;;;494266;240;1188;-46
2021/08/15 02:59:28;;;;;;;;;;;18.90;72.90;;;;;;494546;240;2143;-46
2021/08/15 03:01:29;;;;;;;;;;;18.90;72.90;;;;;;494051;240;1177;-46
2021/08/15 03:03:30;;;;;;;;;;;18.90;73.00;;;;;;494064;240;1085;-46
2021/08/15 03:05:32;;;;;;;;;;;18.90;72.90;;;;;;494380;240;1049;-46
2021/08/15 03:07:33;;;;;;;;;;;18.90;72.90;;;;;;494101;240;1186;-46
2021/08/15 03:09:34;;;;;;;;;;;18.90;72.90;;;;;;494098;240;1192;-46
2021/08/15 03:11:36;;;;;;;;;;;18.90;73.00;;;;;;494297;240;1224;-46
2021/08/15 03:13:37;;;;;;;;;;;18.90;73.00;;;;;;494080;240;1169;-46
2021/08/15 03:15:40;;;;;;;;;;;18.90;73.00;;;;;;494061;240;1067;-46
2021/08/15 03:17:40;;;;;;;;;;;18.90;73.00;;;;;;493899;240;1900;-46
2021/08/15 03:19:41;;;;;;;;;;;18.90;72.90;;;;;;494024;240;2191;-46
2021/08/15 03:21:42;;;;;;;;;;;18.90;72.90;;;;;;494115;240;1197;-46
2021/08/15 03:23:43;;;;;;;;;;;18.90;72.90;;;;;;494089;240;1049;-46
2021/08/15 03:25:45;;;;;;;;;;;18.90;73.00;;;;;;494551;240;1058;-46
2021/08/15 03:27:46;;;;;;;;;;;18.90;73.00;;;;;;494383;240;1148;-46
2021/08/15 03:29:47;;;;;;;;;;;18.90;72.90;;;;;;494487;240;1008;-46
2021/08/15 03:31:49;;;;;;;;;;;18.90;72.90;;;;;;494250;240;1179;-46
2021/08/15 03:33:50;;;;;;;;;;;18.90;72.80;;;;;;494391;240;1286;-46
2021/08/15 03:35:51;;;;;;;;;;;18.90;72.90;;;;;;494023;240;1059;-46
2021/08/15 03:37:53;;;;;;;;;;;18.90;72.80;;;;;;494041;240;1089;-46
2021/08/15 03:39:54;;;;;;;;;;;19.00;72.80;;;;;;494034;240;2135;-46
2021/08/15 03:41:58;;;;;;;;;;;18.90;72.80;;;;;;494014;240;1394;-46
2021/08/15 03:43:57;;;;;;;;;;;19.00;72.80;;;;;;493867;241;2073;-46
2021/08/15 03:45:58;;;;;;;;;;;18.90;72.90;;;;;;494530;240;964;-46
2021/08/15 03:47:59;;;;;;;;;;;18.90;73.00;;;;;;494357;240;1517;-46
2021/08/15 03:50:01;;;;;;;;;;;18.90;73.00;;;;;;494237;240;1151;-46
2021/08/15 03:52:02;;;;;;;;;;;18.90;73.00;;;;;;494008;240;1334;-46
2021/08/15 03:54:03;;;;;;;;;;;18.90;73.00;;;;;;494339;240;1271;-46
2021/08/15 03:56:05;;;;;;;;;;;18.90;72.90;;;;;;494062;240;1120;-46
2021/08/15 03:58:06;;;;;;;;;;;18.90;72.90;;;;;;494535;240;1131;-46
2021/08/15 04:00:07;;;;;;;;;;;18.90;73.00;;;;;;494530;240;2192;-46
2021/08/15 04:02:09;;;;;;;;;;;18.90;72.90;;;;;;494022;240;1197;-46
2021/08/15 04:04:10;;;;;;;;;;;18.90;72.90;;;;;;494029;240;1227;-46
2021/08/15 04:06:20;;;;;;;;;;;18.90;73.00;;;;;;493965;240;1294;-46
2021/08/15 04:08:12;;;;;;;;;;;18.90;73.00;;;;;;493403;241;2027;-47
2021/08/15 04:10:14;;;;;;;;;;;18.90;72.90;;;;;;494012;240;1094;-46
2021/08/15 04:12:15;;;;;;;;;;;18.90;72.90;;;;;;494200;240;1182;-46
2021/08/15 04:14:17;;;;;;;;;;;18.90;73.00;;;;;;494099;240;1043;-46
2021/08/15 04:16:18;;;;;;;;;;;18.90;73.00;;;;;;494138;240;1253;-46
2021/08/15 04:18:19;;;;;;;;;;;18.90;73.00;;;;;;494227;240;1042;-46
2021/08/15 04:20:21;;;;;;;;;;;18.90;72.90;;;;;;494055;240;2186;-46
2021/08/15 04:22:22;;;;;;;;;;;18.90;72.90;;;;;;494024;240;1268;-46
2021/08/15 04:24:23;;;;;;;;;;;18.90;73.10;;;;;;494535;240;1033;-46
2021/08/15 04:26:24;;;;;;;;;;;18.90;73.00;;;;;;494555;240;1115;-46
2021/08/15 04:28:26;;;;;;;;;;;18.90;72.90;;;;;;494559;240;1302;-46
2021/08/15 04:30:27;;;;;;;;;;;18.90;72.80;;;;;;494548;240;1061;-46
2021/08/15 04:32:28;;;;;;;;;;;18.90;72.90;;;;;;494534;240;1152;-46
2021/08/15 04:34:30;;;;;;;;;;;18.90;73.00;;;;;;494077;240;1542;-46
2021/08/15 04:36:31;;;;;;;;;;;18.90;73.00;;;;;;493948;240;1156;-46
2021/08/15 04:38:32;;;;;;;;;;;18.90;73.00;;;;;;494525;240;1064;-46
2021/08/15 04:40:34;;;;;;;;;;;18.90;72.90;;;;;;494021;240;2190;-46
2021/08/15 04:42:35;;;;;;;;;;;18.90;73.00;;;;;;494070;240;1183;-46
2021/08/15 04:44:36;;;;;;;;;;;18.90;73.00;;;;;;494387;240;956;-46
2021/08/15 04:46:38;;;;;;;;;;;18.90;73.00;;;;;;494061;240;1217;-46
2021/08/15 04:48:39;;;;;;;;;;;18.90;73.00;;;;;;494193;240;1107;-46
2021/08/15 04:50:40;;;;;;;;;;;18.90;73.00;;;;;;494220;240;1133;-46
2021/08/15 04:52:42;;;;;;;;;;;18.90;73.00;;;;;;494568;240;1360;-46
2021/08/15 04:54:43;;;;;;;;;;;18.90;73.00;;;;;;494578;240;1114;-46
2021/08/15 04:56:44;;;;;;;;;;;18.90;73.00;;;;;;494503;240;1137;-46
2021/08/15 04:58:45;;;;;;;;;;;18.90;73.00;;;;;;494589;240;1104;-46
2021/08/15 05:00:47;;;;;;;;;;;18.90;72.90;;;;;;494026;240;2187;-46
2021/08/15 05:02:48;;;;;;;;;;;18.90;72.80;;;;;;494526;240;1098;-46
2021/08/15 05:04:49;;;;;;;;;;;18.90;72.90;;;;;;494493;240;1138;-47
2021/08/15 05:06:51;;;;;;;;;;;18.90;72.90;;;;;;494399;240;1249;-46
2021/08/15 05:08:52;;;;;;;;;;;18.90;72.90;;;;;;494613;240;1203;-46
2021/08/15 05:10:53;;;;;;;;;;;18.90;72.90;;;;;;494336;240;1083;-46
2021/08/15 05:12:55;;;;;;;;;;;18.90;72.90;;;;;;494526;240;1170;-46
2021/08/15 05:14:56;;;;;;;;;;;18.90;72.90;;;;;;494083;240;1039;-46
2021/08/15 05:16:57;;;;;;;;;;;18.90;73.00;;;;;;494221;240;1266;-46
2021/08/15 05:18:59;;;;;;;;;;;18.90;73.00;;;;;;494096;240;1039;-46
2021/08/15 05:21:00;;;;;;;;;;;18.90;72.90;;;;;;494037;240;2171;-46
2021/08/15 05:23:01;;;;;;;;;;;18.90;72.90;;;;;;494098;240;1239;-46
2021/08/15 05:25:03;;;;;;;;;;;18.90;72.90;;;;;;494163;240;1056;-46
2021/08/15 05:27:04;;;;;;;;;;;18.90;72.90;;;;;;494171;240;1203;-46
2021/08/15 05:29:05;;;;;;;;;;;18.90;72.90;;;;;;494453;240;1078;-46
2021/08/15 05:31:07;;;;;;;;;;;18.90;72.90;;;;;;494502;240;1563;-46
2021/08/15 05:33:08;;;;;;;;;;;18.90;72.90;;;;;;494491;240;1465;-46
2021/08/15 05:35:09;;;;;;;;;;;18.90;73.00;;;;;;494129;240;1165;-46
2021/08/15 05:37:11;;;;;;;;;;;18.90;73.00;;;;;;494253;240;1310;-46
2021/08/15 05:39:12;;;;;;;;;;;18.90;73.00;;;;;;494048;240;1175;-46
2021/08/15 05:41:13;;;;;;;;;;;18.90;73.00;;;;;;494422;240;2182;-46
2021/08/15 05:43:14;;;;;;;;;;;18.90;73.00;;;;;;494031;240;1221;-46
2021/08/15 05:45:16;;;;;;;;;;;18.90;73.00;;;;;;494291;240;1054;-45
2021/08/15 05:47:17;;;;;;;;;;;18.90;72.90;;;;;;494313;240;1236;-46
2021/08/15 05:49:18;;;;;;;;;;;18.90;72.90;;;;;;494190;240;1163;-46
2021/08/15 05:51:20;;;;;;;;;;;18.90;72.90;;;;;;494214;240;1276;-46
2021/08/15 05:53:21;;;;;;;;;;;18.90;73.00;;;;;;494302;240;1159;-46
2021/08/15 05:55:22;;;;;;;;;;;18.90;73.00;;;;;;494566;240;1083;-46
2021/08/15 05:57:24;;;;;;;;;;;18.90;73.00;;;;;;493986;240;1194;-46
2021/08/15 05:59:25;;;;;;;;;;;18.90;73.00;;;;;;494287;240;1051;-46
2021/08/15 06:01:26;;;;;;;;;;;18.90;73.00;;;;;;494255;240;2132;-46
2021/08/15 06:03:28;;;;;;;;;;;18.90;72.90;;;;;;494573;240;1366;-46
2021/08/15 06:05:29;;;;;;;;;;;18.90;73.00;;;;;;494494;240;1253;-46
2021/08/15 06:07:30;;;;;;;;;;;18.90;73.00;;;;;;494166;240;1171;-46
2021/08/15 06:09:32;;;;;;;;;;;18.90;73.00;;;;;;494079;240;1013;-46
2021/08/15 06:11:33;;;;;;;;;;;18.90;72.90;;;;;;494012;240;1140;-46
2021/08/15 06:13:34;;;;;;;;;;;18.90;73.00;;;;;;494114;240;1331;-46
2021/08/15 06:15:36;;;;;;;;;;;18.90;73.00;;;;;;494572;240;1034;-46
2021/08/15 06:17:37;;;;;;;;;;;18.90;73.00;;;;;;493992;240;1259;-46
2021/08/15 06:19:38;;;;;;;;;;;18.90;73.00;;;;;;494094;240;997;-46
2021/08/15 06:21:40;;;;;;;;;;;18.90;73.10;;;;;;494213;240;2131;-46
2021/08/15 06:23:41;;;;;;;;;;;18.90;73.00;;;;;;494464;240;958;-46
2021/08/15 06:25:42;;;;;;;;;;;18.90;73.00;;;;;;494539;240;1153;-46
2021/08/15 06:27:44;;;;;;;;;;;18.90;72.90;;;;;;494356;240;1294;-46
2021/08/15 06:29:45;;;;;;;;;;;18.90;73.00;;;;;;494094;240;975;-46
2021/08/15 06:31:46;;;;;;;;;;;18.90;73.00;;;;;;494046;240;1314;-46
2021/08/15 06:33:48;;;;;;;;;;;18.90;72.90;;;;;;494499;240;1168;-46
2021/08/15 06:35:49;;;;;;;;;;;18.90;73.00;;;;;;494195;237;1292;-47
2021/08/15 06:37:52;;;;;;;;;;;18.90;73.10;;;;;;493998;240;1208;-46
2021/08/15 06:39:52;;;;;;;;;;;18.90;73.10;;;;;;494037;241;2257;-46
2021/08/15 06:41:53;;;;;;;;;;;18.90;73.10;;;;;;494011;240;2187;-46
2021/08/15 06:43:55;;;;;;;;;;;18.90;73.10;;;;;;494274;240;1085;-46
2021/08/15 06:45:56;;;;;;;;;;;18.80;73.10;;;;;;494116;240;1059;-46
2021/08/15 06:47:57;;;;;;;;;;;18.90;73.10;;;;;;494167;240;989;-46
2021/08/15 06:50:02;;;;;;;;;;;18.90;73.10;;;;;;494114;240;1023;-46
2021/08/15 06:52:00;;;;;;;;;;;18.90;73.00;;;;;;493834;241;2222;-46
2021/08/15 06:54:01;;;;;;;;;;;18.90;73.10;;;;;;494157;240;1003;-46
2021/08/15 06:56:05;;;;;;;;;;;18.90;73.10;;;;;;494455;240;1063;-46
2021/08/15 06:58:04;;;;;;;;;;;18.90;73.10;;;;;;493798;241;1914;-46
2021/08/15 07:00:05;;;;;;;;;;;18.90;73.20;;;;;;494128;240;1409;-46
2021/08/15 07:02:07;;;;;;;;;;;18.90;73.10;;;;;;494357;240;2179;-46
2021/08/15 07:04:08;;;;;;;;;;;18.90;73.10;;;;;;494094;240;1047;-46
2021/08/15 07:06:09;;;;;;;;;;;18.90;73.10;;;;;;494486;240;1256;-46
2021/08/15 07:08:11;;;;;;;;;;;18.90;73.10;;;;;;494430;240;1066;-46
2021/08/15 07:10:12;;;;;;;;;;;18.90;73.00;;;;;;494353;240;1101;-46
2021/08/15 07:12:13;;;;;;;;;;;18.90;73.00;;;;;;494209;240;1188;-46
2021/08/15 07:14:15;;;;;;;;;;;18.90;73.00;;;;;;494535;240;1208;-46
2021/08/15 07:16:16;;;;;;;;;;;18.90;73.00;;;;;;494465;240;1107;-45
2021/08/15 07:18:17;;;;;;;;;;;18.90;72.90;;;;;;494519;240;1064;-46
2021/08/15 07:20:19;;;;;;;;;;;18.90;73.00;;;;;;494456;240;1113;-46
2021/08/15 07:22:20;;;;;;;;;;;18.90;73.00;;;;;;494211;240;2123;-46
2021/08/15 07:24:21;;;;;;;;;;;18.90;73.00;;;;;;494545;240;1042;-46
2021/08/15 07:26:22;;;;;;;;;;;18.90;73.00;;;;;;493956;240;1662;-46
2021/08/15 07:28:24;;;;;;;;;;;18.90;73.00;;;;;;494252;240;1076;-46
2021/08/15 07:30:25;;;;;;;;;;;18.90;73.00;;;;;;494054;240;1054;-46
2021/08/15 07:32:26;;;;;;;;;;;18.90;73.10;;;;;;493984;240;1205;-46
2021/08/15 07:34:28;;;;;;;;;;;18.90;73.00;;;;;;494336;240;1039;-46
2021/08/15 07:36:29;;;;;;;;;;;18.90;73.20;;;;;;494397;239;1176;-46
2021/08/15 07:38:30;;;;;;;;;;;19.20;72.10;;;;;;494142;240;1210;-46
2021/08/15 07:40:32;;;;;;;;;;;19.50;70.90;;;;;;494410;240;1025;-46
2021/08/15 07:42:33;;;;;;;;;;;19.70;70.00;;;;;;494052;240;2187;-46
2021/08/15 07:44:34;;;;;;;;;;;19.90;69.40;;;;;;494102;240;1083;-46
2021/08/15 07:46:36;;;;;;;;;;;20.00;68.80;;;;;;494199;240;1048;-46
2021/08/15 07:48:37;;;;;;;;;;;20.10;68.40;;;;;;494512;240;1175;-46
2021/08/15 07:50:39;;;;;;;;;;;20.20;68.10;;;;;;494589;240;1026;-46
2021/08/15 07:52:40;;;;;;;;;;;20.30;67.80;;;;;;494118;240;1140;-46
2021/08/15 07:54:41;;;;;;;;;;;20.30;67.60;;;;;;494181;240;1009;-46
2021/08/15 07:56:43;;;;;;;;;;;20.40;67.40;;;;;;494081;240;1218;-46
2021/08/15 07:58:44;;;;;;;;;;;20.50;67.20;;;;;;494441;240;1149;-47
2021/08/15 08:00:45;;;;;;;;;;;20.50;66.80;;;;;;494197;240;2136;-46
2021/08/15 08:02:48;;;;;;;;;;;20.60;66.80;;;;;;494095;240;1296;-46
2021/08/15 08:04:50;;;;;;;;;;;20.60;66.60;;;;;;494056;241;2010;-46
2021/08/15 08:06:50;;;;;;;;;;;20.60;66.50;;;;;;494136;241;2473;-46
2021/08/15 08:08:52;;;;;;;;;;;20.60;66.50;;;;;;494210;240;1073;-46
2021/08/15 08:10:54;;;;;;;;;;;20.70;66.50;;;;;;494083;240;1463;-47
2021/08/15 08:12:55;;;;;;;;;;;20.80;66.30;;;;;;494362;240;1377;-46
2021/08/15 08:14:56;;;;;;;;;;;20.80;66.10;;;;;;494525;240;1046;-46
2021/08/15 08:16:58;;;;;;;;;;;20.80;66.10;;;;;;494333;240;1183;-46
2021/08/15 08:18:59;;;;;;;;;;;20.80;66.10;;;;;;494090;240;1077;-47
2021/08/15 08:21:00;;;;;;;;;;;20.80;65.90;;;;;;494538;240;2124;-46
2021/08/15 08:23:02;;;;;;;;;;;20.90;65.80;;;;;;494073;240;1280;-46
2021/08/15 08:25:03;;;;;;;;;;;20.90;65.70;;;;;;494548;240;1026;-46
2021/08/15 08:27:04;;;;;;;;;;;21.00;65.60;;;;;;494075;240;1115;-47
2021/08/15 08:29:06;;;;;;;;;;;21.00;65.50;;;;;;494206;240;1030;-46
2021/08/15 08:31:07;;;;;;;;;;;21.00;65.40;;;;;;494332;240;1217;-46
2021/08/15 08:33:08;;;;;;;;;;;21.00;65.40;;;;;;494444;240;1069;-46
2021/08/15 08:35:10;;;;;;;;;;;21.10;65.30;;;;;;494410;240;1088;-47
2021/08/15 08:37:11;;;;;;;;;;;21.10;65.10;;;;;;494354;240;1197;-46
2021/08/15 08:39:12;;;;;;;;;;;21.10;65.00;;;;;;494121;240;1145;-47
2021/08/15 08:41:14;;;;;;;;;;;21.20;65.00;;;;;;494252;240;2186;-47
2021/08/15 08:43:15;;;;;;;;;;;21.20;65.00;;;;;;494225;240;1305;-46
2021/08/15 08:45:16;;;;;;;;;;;21.20;64.90;;;;;;494594;240;1103;-47
2021/08/15 08:47:18;;;;;;;;;;;21.20;64.90;;;;;;494072;240;1305;-47
2021/08/15 08:49:19;;;;;;;;;;;21.20;65.00;;;;;;494085;240;1064;-47
2021/08/15 08:51:20;;;;;;;;;;;21.30;64.90;;;;;;494104;240;1230;-47
2021/08/15 08:53:21;;;;;;;;;;;21.30;64.80;;;;;;494257;240;1185;-47
2021/08/15 08:55:23;;;;;;;;;;;21.30;64.70;;;;;;494563;240;1046;-46
2021/08/15 08:57:24;;;;;;;;;;;21.40;64.60;;;;;;494566;240;1056;-46
2021/08/15 08:59:25;;;;;;;;;;;21.40;64.50;;;;;;494499;240;1316;-46
2021/08/15 09:01:27;;;;;;;;;;;21.40;64.60;;;;;;494548;240;2190;-46
2021/08/15 09:03:28;;;;;;;;;;;21.40;64.60;;;;;;494354;240;1043;-47
2021/08/15 09:05:31;;;;;;;;;;;21.40;64.50;;;;;;494100;240;1041;-46
2021/08/15 09:07:31;;;;;;;;;;;21.40;64.40;;;;;;493981;240;1064;-47
2021/08/15 09:09:33;;;;;;;;;;;21.40;64.40;;;;;;494047;240;1198;-47
2021/08/15 09:11:34;;;;;;;;;;;21.50;64.30;;;;;;494192;240;1078;-47
2021/08/15 09:13:35;;;;;;;;;;;21.50;64.30;;;;;;494570;240;1079;-47
2021/08/15 09:15:37;;;;;;;;;;;21.50;64.20;;;;;;494597;240;1022;-47
2021/08/15 09:17:38;;;;;;;;;;;21.50;64.20;;;;;;494070;240;1052;-47
2021/08/15 09:19:40;;;;;;;;;;;21.50;64.30;;;;;;494183;240;1075;-46
2021/08/15 09:21:41;;;;;;;;;;;21.50;64.30;;;;;;494315;240;2143;-47
2021/08/15 09:23:42;;;;;;;;;;;21.50;64.20;;;;;;494302;240;1347;-46
2021/08/15 09:25:44;;;;;;;;;;;21.60;64.20;;;;;;494155;240;1146;-46
2021/08/15 09:27:45;;;;;;;;;;;21.60;64.20;;;;;;494217;240;1113;-47
2021/08/15 09:29:46;;;;;;;;;;;21.60;64.20;;;;;;494055;240;1096;-46
2021/08/15 09:31:48;;;;;;;;;;;21.60;64.20;;;;;;494518;240;1085;-47
2021/08/15 09:33:49;;;;;;;;;;;21.60;64.10;;;;;;494021;240;1384;-46
2021/08/15 09:35:51;;;;;;;;;;;21.70;64.10;;;;;;494346;240;1067;-46
2021/08/15 09:37:52;;;;;;;;;;;21.70;64.00;;;;;;493983;241;2296;-46
2021/08/15 09:39:53;;;;;;;;;;;21.70;64.00;;;;;;494081;240;1209;-46
2021/08/15 09:41:54;;;;;;;;;;;21.60;64.10;;;;;;494507;240;2205;-47
2021/08/15 09:43:55;;;;;;;;;;;21.70;64.00;;;;;;494315;240;1035;-47
2021/08/15 09:45:57;;;;;;;;;;;21.60;64.10;;;;;;494076;240;1082;-47
2021/08/15 09:47:59;;;;;;;;;;;21.70;64.00;;;;;;494556;240;1155;-46
2021/08/15 09:50:00;;;;;;;;;;;21.80;63.80;;;;;;494550;240;1034;-46
2021/08/15 09:52:01;;;;;;;;;;;21.70;63.80;;;;;;494381;240;1220;-46
2021/08/15 09:54:02;;;;;;;;;;;21.70;63.80;;;;;;494234;237;1270;-47
2021/08/15 09:56:04;;;;;;;;;;;21.80;63.70;;;;;;494074;240;1165;-46
2021/08/15 09:58:05;;;;;;;;;;;21.80;63.80;;;;;;494070;240;1075;-46
2021/08/15 10:00:06;;;;;;;;;;;21.70;64.60;;;;;;494439;240;1037;-46
2021/08/15 10:02:08;;;;;;;;;;;21.70;64.50;;;;;;494481;240;2123;-46
2021/08/15 10:04:09;;;;;;;;;;;21.40;65.70;;;;;;494526;240;1161;-46
2021/08/15 10:06:10;;;;;;;;;;;21.10;67.10;;;;;;494058;240;1053;-46
2021/08/15 10:08:12;;;;;;;;;;;20.80;68.20;;;;;;494383;240;1284;-46
2021/08/15 10:10:13;;;;;;;;;;;20.50;69.20;;;;;;494069;240;1141;-46
2021/08/15 10:12:14;;;;;;;;;;;20.40;69.70;;;;;;494080;240;1048;-46
2021/08/15 10:14:16;;;;;;;;;;;20.30;70.10;;;;;;494069;240;1276;-46
2021/08/15 10:16:17;;;;;;;;;;;20.20;70.60;;;;;;494509;240;1319;-46
2021/08/15 10:18:19;;;;;;;;;;;20.10;70.70;;;;;;494003;240;1414;-46
2021/08/15 10:20:20;;;;;;;;;;;20.10;70.80;;;;;;494469;240;1051;-46
2021/08/15 10:22:23;;;;;;;;;;;20.00;70.90;;;;;;494034;240;2186;-47
2021/08/15 10:24:23;;;;;;;;;;;20.00;71.00;;;;;;494041;240;1871;-46
2021/08/15 10:26:24;;;;;;;;;;;19.90;71.20;;;;;;494331;240;1193;-46
2021/08/15 10:28:25;;;;;;;;;;;19.90;71.30;;;;;;494565;240;1291;-46
2021/08/15 10:30:27;;;;;;;;;;;19.90;71.40;;;;;;494515;239;1377;-46
2021/08/15 10:32:28;;;;;;;;;;;19.80;71.40;;;;;;494017;240;1439;-46
2021/08/15 10:34:29;;;;;;;;;;;19.80;71.40;;;;;;494523;240;1058;-47
2021/08/15 10:36:31;;;;;;;;;;;19.80;71.50;;;;;;494407;240;1410;-46
2021/08/15 10:38:32;;;;;;;;;;;19.80;71.70;;;;;;494084;240;1095;-46
2021/08/15 10:40:33;;;;;;;;;;;19.80;71.80;;;;;;494025;240;1223;-46
2021/08/15 10:42:35;;;;;;;;;;;19.80;71.70;;;;;;494413;240;2203;-46
2021/08/15 10:44:36;;;;;;;;;;;19.70;71.80;;;;;;494130;240;1065;-46
2021/08/15 10:46:37;;;;;;;;;;;19.70;71.80;;;;;;494485;239;1335;-46
2021/08/15 10:48:39;;;;;;;;;;;19.70;72.00;;;;;;494356;240;1105;-46
2021/08/15 10:50:40;;;;;;;;;;;19.60;72.00;;;;;;494241;240;1052;-46
2021/08/15 10:52:41;;;;;;;;;;;19.70;72.00;;;;;;494267;240;1226;-46
2021/08/15 10:54:43;;;;;;;;;;;19.70;72.00;;;;;;494363;240;1266;-46
2021/08/15 10:56:44;;;;;;;;;;;19.60;71.80;;;;;;494208;240;1215;-46
2021/08/15 10:58:47;;;;;;;;;;;19.60;71.90;;;;;;494066;240;972;-46
2021/08/15 11:00:47;;;;;;;;;;;19.60;72.00;;;;;;494277;241;2170;-46
2021/08/15 11:02:48;;;;;;;;;;;19.60;72.00;;;;;;494485;240;2202;-46
2021/08/15 11:04:49;;;;;;;;;;;19.60;72.00;;;;;;494438;240;1061;-46
2021/08/15 11:06:52;;;;;;;;;;;19.60;72.00;;;;;;493994;240;1388;-46
2021/08/15 11:08:53;;;;;;;;;;;19.60;72.10;;;;;;494017;240;1293;-46
2021/08/15 11:10:55;;;;;;;;;;;19.60;72.10;;;;;;494007;240;1171;-46
2021/08/15 11:12:56;;;;;;;;;;;19.60;72.10;;;;;;494033;240;1074;-46
2021/08/15 11:14:57;;;;;;;;;;;19.60;72.10;;;;;;494563;240;1051;-46
2021/08/15 11:16:58;;;;;;;;;;;19.60;72.20;;;;;;493992;240;1343;-47
2021/08/15 11:19:00;;;;;;;;;;;19.60;72.10;;;;;;494620;240;1178;-46
2021/08/15 11:21:01;;;;;;;;;;;19.50;72.10;;;;;;494578;240;1051;-46
2021/08/15 11:23:02;;;;;;;;;;;19.50;72.20;;;;;;494279;240;2143;-46
2021/08/15 11:25:04;;;;;;;;;;;19.50;72.20;;;;;;494399;240;1168;-46
2021/08/15 11:27:05;;;;;;;;;;;19.50;72.10;;;;;;494499;240;1129;-46
2021/08/15 11:29:08;;;;;;;;;;;19.50;72.10;;;;;;494438;240;1138;-46
2021/08/15 11:31:08;;;;;;;;;;;19.50;72.20;;;;;;494032;240;2098;-46
2021/08/15 11:33:11;;;;;;;;;;;19.50;72.30;;;;;;494078;240;1162;-46
2021/08/15 11:35:11;;;;;;;;;;;19.50;72.30;;;;;;494059;240;1924;-46
2021/08/15 11:37:12;;;;;;;;;;;19.50;72.30;;;;;;494284;240;1068;-46
2021/08/15 11:39:14;;;;;;;;;;;19.50;72.30;;;;;;494583;240;1120;-46
2021/08/15 11:41:15;;;;;;;;;;;19.40;72.30;;;;;;494027;240;1330;-46
2021/08/15 11:43:16;;;;;;;;;;;19.40;72.40;;;;;;494340;240;2135;-46
2021/08/15 11:45:18;;;;;;;;;;;19.40;72.40;;;;;;494538;240;1112;-46
2021/08/15 11:47:19;;;;;;;;;;;19.40;72.40;;;;;;493925;240;1142;-46
2021/08/15 11:49:20;;;;;;;;;;;19.40;72.30;;;;;;494586;240;1066;-46
2021/08/15 11:51:22;;;;;;;;;;;19.40;72.20;;;;;;494374;240;1167;-46
2021/08/15 11:53:23;;;;;;;;;;;19.40;72.20;;;;;;494502;240;1300;-46
2021/08/15 11:55:24;;;;;;;;;;;19.50;72.30;;;;;;494071;240;1338;-46
2021/08/15 11:57:26;;;;;;;;;;;19.40;72.30;;;;;;494077;240;1433;-46